Time;durP1;ratioP1;P1;durP2;ratioP2;P2;SDS_P1;SDS_P2;PMS_P1;PMS_P2;Temp;Humidity;BMP_temperature;BMP_pressure;BME280_temperature;BME280_humidity;BME280_pressure;Samples;Min_cycle;Max_cycle;Signal;HPM_P1;HPM_P2
2022/08/11 00:01:18;;;;;;;9.20;1.77;;;19.10;99.90;;;;;;5036314;28;20531;-73
2022/08/11 00:03:54;;;;;;;3.20;1.90;;;19.10;99.90;;;;;;5036702;28;20406;-74
2022/08/11 00:06:27;;;;;;;1.87;1.40;;;19.00;99.90;;;;;;5037982;28;20501;-73
2022/08/11 00:08:54;;;;;;;2.07;1.77;;;19.00;99.90;;;;;;5036083;28;20425;-72
2022/08/11 00:11:21;;;;;;;2.00;1.80;;;18.90;99.90;;;;;;5035784;28;20767;-72
2022/08/11 00:13:48;;;;;;;1.40;1.30;;;18.90;99.90;;;;;;5035754;28;20425;-72
2022/08/11 00:16:21;;;;;;;2.37;2.17;;;18.90;99.90;;;;;;5035405;28;20840;-73
2022/08/11 00:18:50;;;;;;;3.00;1.50;;;18.80;99.90;;;;;;5035641;28;20525;-73
2022/08/11 00:21:17;;;;;;;1.67;1.50;;;18.80;99.90;;;;;;5035300;28;20507;-73
2022/08/11 00:23:56;;;;;;;1.47;1.37;;;18.70;99.90;;;;;;5035251;28;20474;-73
2022/08/11 00:26:23;;;;;;;2.10;1.70;;;18.70;99.90;;;;;;5035342;28;20784;-74
2022/08/11 00:28:51;;;;;;;2.37;1.37;;;18.60;99.90;;;;;;5035411;28;20431;-73
2022/08/11 00:31:30;;;;;;;5.90;1.57;;;18.70;99.90;;;;;;5035522;28;20925;-73
2022/08/11 00:33:57;;;;;;;1.83;1.60;;;18.60;99.90;;;;;;5042011;28;20409;-73
2022/08/11 00:36:37;;;;;;;6.10;2.10;;;18.60;99.90;;;;;;5035212;28;20407;-73
2022/08/11 00:39:05;;;;;;;4.53;1.77;;;18.50;99.90;;;;;;5035096;28;20729;-74
2022/08/11 00:41:49;;;;;;;1.63;1.40;;;18.60;99.90;;;;;;5034900;28;20472;-73
2022/08/11 00:44:36;;;;;;;5.53;1.93;;;18.50;99.90;;;;;;5034895;28;20405;-72
2022/08/11 00:47:22;;;;;;;2.27;1.70;;;18.50;99.90;;;;;;5035212;28;20440;-72
2022/08/11 00:49:48;;;;;;;2.80;2.60;;;18.40;99.90;;;;;;5035193;28;20840;-71
2022/08/11 00:52:17;;;;;;;1.80;1.50;;;18.40;99.90;;;;;;5035053;28;20468;-72
2022/08/11 00:55:00;;;;;;;2.57;2.37;;;18.30;99.90;;;;;;5034813;28;20715;-73
2022/08/11 00:57:45;;;;;;;2.37;2.00;;;18.30;99.90;;;;;;5035553;28;20494;-72
2022/08/11 01:00:15;;;;;;;1.63;1.53;;;18.30;99.90;;;;;;5035442;28;20438;-73
2022/08/11 01:03:09;;;;;;;1.70;1.60;;;18.20;99.90;;;;;;5035067;28;20429;-73
2022/08/11 01:05:47;;;;;;;1.80;1.67;;;18.20;99.90;;;;;;5037958;28;20406;-73
2022/08/11 01:08:50;;;;;;;1.70;1.60;;;18.20;99.90;;;;;;5038036;28;20496;-73
2022/08/11 01:11:34;;;;;;;1.60;1.50;;;18.10;99.90;;;;;;5034413;28;20498;-73
2022/08/11 01:14:38;;;;;;;2.23;1.97;;;18.10;99.90;;;;;;5034598;28;20402;-72
2022/08/11 01:17:28;;;;;;;1.97;1.47;;;18.00;99.90;;;;;;5034703;28;20487;-72
2022/08/11 01:20:10;;;;;;;3.23;1.63;;;18.00;99.90;;;;;;5034186;28;20449;-72
2022/08/11 01:22:48;;;;;;;2.00;1.37;;;18.00;99.90;;;;;;5034316;28;20456;-73
2022/08/11 01:25:37;;;;;;;2.27;1.93;;;18.00;99.90;;;;;;5034147;28;20510;-72
2022/08/11 01:28:11;;;;;;;3.53;1.83;;;18.00;99.90;;;;;;5034106;28;20444;-71
2022/08/11 01:30:58;;;;;;;1.73;1.60;;;17.90;99.90;;;;;;5032037;28;20436;-72
2022/08/11 01:33:32;;;;;;;1.60;1.50;;;17.90;99.90;;;;;;5034218;28;20408;-72
2022/08/11 01:36:35;;;;;;;2.37;1.80;;;17.80;99.90;;;;;;5033726;28;20410;-72
2022/08/11 01:39:12;;;;;;;1.43;1.33;;;17.80;99.90;;;;;;5034233;28;20405;-72
2022/08/11 01:44:54;;;;;;;2.00;1.87;;;17.70;99.90;;;;;;5033857;28;21148;-72
2022/08/11 01:47:51;;;;;;;1.70;1.60;;;17.70;99.90;;;;;;5034087;28;20404;-72
2022/08/11 01:50:45;;;;;;;2.47;1.60;;;17.60;99.90;;;;;;5033769;28;20471;-73
2022/08/11 01:53:16;;;;;;;2.30;1.50;;;17.60;99.90;;;;;;5034221;28;20483;-73
2022/08/11 01:55:56;;;;;;;1.60;1.50;;;17.60;99.90;;;;;;5033659;28;20438;-73
2022/08/11 01:58:35;;;;;;;2.10;1.87;;;17.50;99.90;;;;;;5033868;28;20891;-73
2022/08/11 02:01:45;;;;;;;5.93;1.63;;;17.50;99.90;;;;;;5032229;28;20484;-71
2022/08/11 02:04:34;;;;;;;2.13;1.93;;;17.50;99.90;;;;;;4991594;28;20411;-72
2022/08/11 02:07:25;;;;;;;3.83;2.00;;;17.50;99.90;;;;;;5031502;28;20782;-72
2022/08/11 02:13:41;;;;;;;1.90;1.67;;;17.40;99.90;;;;;;5033008;28;20447;-72
2022/08/11 02:16:25;;;;;;;2.13;1.70;;;17.50;99.90;;;;;;5033074;28;20398;-73
2022/08/11 02:25:03;;;;;;;2.53;2.30;;;17.40;99.90;;;;;;5038300;28;20918;-74
2022/08/11 02:27:47;;;;;;;1.80;1.53;;;17.30;99.90;;;;;;5039444;28;20502;-73
2022/08/11 02:30:21;;;;;;;1.80;1.70;;;17.30;99.90;;;;;;5032033;28;20398;-73
2022/08/11 02:33:22;;;;;;;2.17;1.97;;;17.20;99.90;;;;;;5033385;28;20423;-72
2022/08/11 02:36:22;;;;;;;2.63;2.00;;;17.20;99.90;;;;;;5032946;28;20401;-73
2022/08/11 02:39:02;;;;;;;4.13;1.80;;;17.20;99.90;;;;;;5011102;28;20834;-72
2022/08/11 02:44:58;;;;;;;2.63;2.43;;;17.20;99.90;;;;;;5032732;28;20406;-72
2022/08/11 02:49:52;;;;;;;3.73;1.80;;;17.20;99.90;;;;;;5011493;28;20422;-73
2022/08/11 02:50:34;;;;;;;5.53;2.13;;;17.30;99.90;;;;;;5032790;28;20416;-72
2022/08/11 02:53:11;;;;;;;6.10;3.73;;;17.20;99.90;;;;;;5032917;28;20416;-72
2022/08/11 02:55:56;;;;;;;3.87;1.80;;;17.20;99.90;;;;;;5032964;28;20512;-72
2022/08/11 02:58:40;;;;;;;3.07;2.13;;;17.20;99.90;;;;;;5033555;28;20435;-72
2022/08/11 03:01:18;;;;;;;1.80;1.70;;;17.20;99.90;;;;;;5033163;28;20457;-72
2022/08/11 03:04:00;;;;;;;3.00;2.23;;;17.20;99.90;;;;;;5032867;28;20456;-72
2022/08/11 03:06:37;;;;;;;2.33;2.13;;;17.20;99.90;;;;;;5033167;28;20404;-72
2022/08/11 03:09:05;;;;;;;2.53;2.03;;;17.10;99.90;;;;;;5033109;28;20776;-72
2022/08/11 03:17:57;;;;;;;4.93;2.40;;;17.00;99.90;;;;;;5032709;28;20399;-73
2022/08/11 03:21:04;;;;;;;2.70;2.50;;;17.10;99.90;;;;;;5034643;28;20828;-72
2022/08/11 03:23:39;;;;;;;3.43;2.20;;;17.00;99.90;;;;;;5024631;28;20425;-73
2022/08/11 03:26:32;;;;;;;3.20;2.27;;;17.00;99.90;;;;;;5031183;28;20403;-73
2022/08/11 03:29:21;;;;;;;2.57;2.07;;;17.00;99.90;;;;;;5032135;28;20467;-72
2022/08/11 03:32:03;;;;;;;3.60;2.33;;;17.00;99.90;;;;;;5031965;28;20425;-72
2022/08/11 03:34:31;;;;;;;2.33;2.07;;;17.00;99.90;;;;;;5032039;28;20409;-72
2022/08/11 03:43:53;;;;;;;4.87;2.47;;;16.90;99.90;;;;;;5032377;28;20417;-72
2022/08/11 03:46:44;;;;;;;3.00;2.20;;;16.90;99.90;;;;;;5031803;28;20776;-72
2022/08/11 03:49:40;;;;;;;3.27;2.40;;;16.90;99.90;;;;;;5031884;28;20413;-72
2022/08/11 03:52:20;;;;;;;3.57;2.40;;;16.90;99.90;;;;;;5031913;28;20429;-72
2022/08/11 03:55:03;;;;;;;3.40;2.60;;;16.90;99.90;;;;;;5031929;28;20887;-72
2022/08/11 03:57:46;;;;;;;3.33;2.40;;;16.90;99.90;;;;;;5032062;28;20399;-72
2022/08/11 04:00:37;;;;;;;3.90;2.07;;;16.90;99.90;;;;;;5031814;28;20862;-72
2022/08/11 04:03:45;;;;;;;4.10;2.90;;;16.90;99.90;;;;;;5031836;28;20432;-72
2022/08/11 04:06:35;;;;;;;3.03;2.60;;;17.00;99.90;;;;;;5032426;28;21116;-73
2022/08/11 04:09:14;;;;;;;2.20;1.97;;;17.00;99.90;;;;;;5033173;28;20397;-75
2022/08/11 04:12:13;;;;;;;3.07;2.23;;;17.10;99.90;;;;;;5034566;28;20501;-72
2022/08/11 04:17:38;;;;;;;3.07;2.77;;;17.10;99.90;;;;;;5032074;28;20443;-72
2022/08/11 04:20:17;;;;;;;8.50;2.20;;;17.20;99.90;;;;;;5031598;28;20456;-72
2022/08/11 04:23:10;;;;;;;3.57;2.60;;;17.20;99.90;;;;;;5031522;28;20419;-72
2022/08/11 04:26:00;;;;;;;2.47;2.27;;;17.30;99.90;;;;;;5031551;28;20448;-72
2022/08/11 04:28:57;;;;;;;3.50;2.53;;;17.30;99.90;;;;;;5031601;28;20429;-72
2022/08/11 04:31:36;;;;;;;5.40;3.10;;;17.30;99.90;;;;;;5031603;28;20454;-73
2022/08/11 04:34:24;;;;;;;2.50;2.17;;;17.40;99.90;;;;;;5031896;28;20381;-76
2022/08/11 04:37:31;;;;;;;2.53;2.17;;;17.50;99.90;;;;;;5033800;28;20829;-71
2022/08/11 04:40:36;;;;;;;3.30;2.07;;;17.50;99.90;;;;;;5023962;28;20436;-73
2022/08/11 04:43:37;;;;;;;3.90;3.00;;;17.50;99.90;;;;;;5035883;28;20438;-72
2022/08/11 04:46:05;;;;;;;4.13;3.50;;;17.60;99.90;;;;;;5033624;28;20407;-72
2022/08/11 05:01:41;;;;;;;4.07;3.03;;;18.00;99.90;;;;;;5021052;28;20492;-73
2022/08/11 05:07:29;;;;;;;3.83;3.17;;;18.20;99.90;;;;;;5020558;28;20462;-73
2022/08/11 05:10:19;;;;;;;2.67;2.47;;;18.30;99.90;;;;;;5032284;28;20413;-72
2022/08/11 05:12:55;;;;;;;6.50;3.50;;;18.40;99.90;;;;;;5015250;28;20435;-74
2022/08/11 05:35:48;;;;;;;4.13;3.10;;;20.70;99.90;;;;;;5014358;28;20384;-73
2022/08/11 05:57:56;;;;;;;3.07;2.50;;;24.40;94.80;;;;;;5034491;28;20432;-74
2022/08/11 06:00:23;;;;;;;3.60;2.67;;;24.50;94.10;;;;;;5038601;28;20451;-75
2022/08/11 06:02:54;;;;;;;4.90;3.40;;;24.30;94.00;;;;;;5036489;28;20424;-74
2022/08/11 06:05:20;;;;;;;3.60;2.80;;;24.30;93.40;;;;;;5033421;28;20416;-74
2022/08/11 06:07:48;;;;;;;4.03;3.50;;;25.00;92.60;;;;;;5033961;28;20410;-75
2022/08/11 06:10:24;;;;;;;3.40;3.03;;;24.60;93.30;;;;;;5033940;28;20477;-74
2022/08/11 06:12:52;;;;;;;4.20;3.03;;;24.50;93.90;;;;;;5034380;28;20805;-73
2022/08/11 06:15:18;;;;;;;4.63;2.77;;;25.40;92.30;;;;;;5033718;28;20414;-76
2022/08/11 06:17:45;;;;;;;3.07;2.73;;;25.20;91.60;;;;;;5033807;28;20414;-74
2022/08/11 06:20:13;;;;;;;3.63;2.97;;;24.80;92.80;;;;;;5033823;28;20202;-73
2022/08/11 06:22:43;;;;;;;5.23;4.27;;;25.30;91.40;;;;;;5033290;28;20483;-74
2022/08/11 06:25:11;;;;;;;4.70;3.40;;;26.00;90.60;;;;;;5033173;28;20411;-73
2022/08/11 06:27:39;;;;;;;5.60;3.07;;;25.80;90.30;;;;;;5052615;28;20455;-75
2022/08/11 06:30:12;;;;;;;2.97;2.77;;;27.00;86.80;;;;;;5053476;28;20405;-75
2022/08/11 06:32:45;;;;;;;3.97;2.87;;;26.90;86.60;;;;;;5043477;28;20529;-73
2022/08/11 06:35:29;;;;;;;3.10;2.70;;;26.80;87.50;;;;;;5033027;28;20406;-75
2022/08/11 06:38:15;;;;;;;3.23;2.70;;;27.50;83.50;;;;;;5033754;28;20841;-74
2022/08/11 06:41:30;;;;;;;3.03;2.60;;;25.30;88.90;;;;;;5033818;28;20488;-73
2022/08/11 06:44:10;;;;;;;4.30;2.87;;;26.10;87.50;;;;;;5011549;28;20820;-73
2022/08/11 06:46:38;;;;;;;3.70;2.83;;;27.40;84.00;;;;;;5012162;28;20893;-74
2022/08/11 06:51:10;;;;;;;4.73;3.20;;;27.80;82.30;;;;;;5013446;28;20803;-74
2022/08/11 06:52:00;;;;;;;3.63;2.60;;;27.40;82.60;;;;;;5012970;28;20453;-75
2022/08/11 06:54:31;;;;;;;3.27;2.97;;;27.90;81.60;;;;;;5012936;28;20403;-74
2022/08/11 07:02:42;;;;;;;2.83;2.60;;;27.80;79.30;;;;;;5032923;28;20477;-73
2022/08/11 07:05:17;;;;;;;3.90;3.30;;;28.30;79.30;;;;;;5031255;28;20410;-73
2022/08/11 07:16:57;;;;;;;3.03;2.73;;;29.10;78.90;;;;;;5017093;28;20414;-75
2022/08/11 07:30:57;;;;;;;2.80;2.43;;;28.60;76.00;;;;;;5012705;28;20767;-75
2022/08/11 07:33:31;;;;;;;3.27;2.67;;;30.10;72.30;;;;;;5012741;28;20754;-75
2022/08/11 07:35:59;;;;;;;2.70;2.30;;;29.10;79.70;;;;;;5012348;28;20403;-75
2022/08/11 07:38:42;;;;;;;2.30;2.10;;;29.90;71.70;;;;;;5012668;28;20894;-74
2022/08/11 07:41:10;;;;;;;4.77;2.90;;;30.90;67.70;;;;;;5014793;28;20798;-75
2022/08/11 07:43:36;;;;;;;3.50;2.27;;;30.20;67.80;;;;;;5041269;28;20847;-74
2022/08/11 07:54:27;;;;;;;2.30;2.10;;;29.50;72.60;;;;;;5031982;28;20405;-74
2022/08/11 07:56:54;;;;;;;4.03;2.77;;;29.60;72.30;;;;;;5032070;28;20410;-75
2022/08/11 08:18:37;;;;;;;8.47;3.03;;;30.00;66.60;;;;;;5028566;28;20417;-76
2022/08/11 08:21:14;;;;;;;4.63;2.20;;;30.70;66.50;;;;;;5035647;28;20468;-75
2022/08/11 08:23:45;;;;;;;3.43;3.13;;;31.20;62.20;;;;;;5035439;28;20414;-75
2022/08/11 08:31:48;;;;;;;2.60;2.23;;;30.20;66.50;;;;;;5035947;28;20476;-75
2022/08/11 08:34:15;;;;;;;3.20;2.63;;;30.10;66.10;;;;;;5035623;28;20414;-74
2022/08/11 08:36:49;;;;;;;3.27;2.07;;;31.00;64.20;;;;;;5035413;28;20564;-75
2022/08/11 08:39:20;;;;;;;2.10;1.77;;;32.60;57.90;;;;;;5035495;28;20405;-76
2022/08/11 08:41:51;;;;;;;6.93;1.90;;;32.50;57.30;;;;;;5035525;28;20484;-75
2022/08/11 08:44:20;;;;;;;2.00;1.90;;;32.20;57.40;;;;;;5035295;28;20402;-76
2022/08/11 08:46:53;;;;;;;4.53;2.17;;;32.10;57.60;;;;;;5035225;28;20413;-74
2022/08/11 08:49:24;;;;;;;4.30;2.13;;;31.70;58.90;;;;;;5035015;28;20414;-74
2022/08/11 08:51:54;;;;;;;2.07;1.80;;;31.50;57.60;;;;;;5035141;28;20461;-74
2022/08/11 08:54:48;;;;;;;2.20;2.00;;;31.60;58.80;;;;;;5035442;28;20402;-72
2022/08/11 08:57:17;;;;;;;2.93;2.40;;;31.20;58.40;;;;;;5033471;28;20486;-75
2022/08/11 08:59:46;;;;;;;2.10;1.83;;;31.00;59.00;;;;;;5034934;28;20426;-74
2022/08/11 09:02:12;;;;;;;3.30;1.80;;;30.20;59.40;;;;;;5035006;28;20442;-74
2022/08/11 09:04:43;;;;;;;4.00;2.07;;;29.50;62.20;;;;;;5034818;28;20465;-75
2022/08/11 09:07:17;;;;;;;2.60;1.93;;;30.10;63.50;;;;;;5034966;28;20183;-74
2022/08/11 09:09:47;;;;;;;5.60;3.17;;;30.00;62.40;;;;;;5035092;28;20451;-74
2022/08/11 09:12:14;;;;;;;5.67;4.97;;;30.60;61.50;;;;;;5034311;28;20544;-75
2022/08/11 09:17:30;;;;;;;2.10;1.90;;;31.00;59.40;;;;;;5034900;28;20486;-74
2022/08/11 09:19:59;;;;;;;2.40;2.20;;;30.50;59.50;;;;;;5034433;28;20418;-74
2022/08/11 09:28:00;;;;;;;3.30;2.53;;;30.70;58.80;;;;;;5014860;28;20457;-74
2022/08/11 09:30:26;;;;;;;3.07;1.80;;;31.20;56.70;;;;;;5015600;28;20419;-75
2022/08/11 09:32:59;;;;;;;2.53;2.00;;;31.40;56.60;;;;;;5016836;28;20796;-75
2022/08/11 09:35:29;;;;;;;2.50;2.30;;;30.30;57.60;;;;;;5021229;28;20410;-75
2022/08/11 09:40:45;;;;;;;2.40;2.20;;;30.90;58.20;;;;;;5014657;28;20500;-75
2022/08/11 09:45:58;;;;;;;2.07;1.87;;;30.80;58.50;;;;;;5014470;28;20861;-73
2022/08/11 09:48:27;;;;;;;4.10;1.93;;;29.60;59.40;;;;;;5012790;28;20469;-75
2022/08/11 09:50:56;;;;;;;2.00;1.90;;;30.50;58.80;;;;;;5014162;28;20407;-74
2022/08/11 09:53:24;;;;;;;2.70;2.30;;;30.00;57.50;;;;;;5014437;28;20498;-73
2022/08/11 09:55:50;;;;;;;2.13;1.80;;;30.50;58.50;;;;;;5029529;28;20510;-73
2022/08/11 09:58:17;;;;;;;2.33;2.23;;;31.90;56.40;;;;;;5014249;28;20458;-73
2022/08/11 10:00:46;;;;;;;2.70;2.03;;;32.70;54.60;;;;;;5014122;28;20459;-75
2022/08/11 10:03:23;;;;;;;1.60;1.50;;;33.10;53.30;;;;;;5014080;28;20771;-74
2022/08/11 10:08:41;;;;;;;1.90;1.80;;;31.00;54.30;;;;;;5013910;28;20386;-73
2022/08/11 10:11:11;;;;;;;2.23;2.03;;;31.30;54.50;;;;;;5013717;28;20476;-74
2022/08/11 10:16:29;;;;;;;3.50;2.10;;;30.60;54.90;;;;;;5014356;28;20486;-75
2022/08/11 10:18:58;;;;;;;3.17;2.87;;;30.50;55.50;;;;;;5033358;28;20417;-74
2022/08/11 10:21:42;;;;;;;7.53;2.97;;;29.90;57.30;;;;;;5033249;28;20462;-75
2022/08/11 10:26:59;;;;;;;3.83;2.50;;;29.20;57.50;;;;;;5033753;28;20812;-74
2022/08/11 10:35:12;;;;;;;2.67;2.47;;;28.90;57.20;;;;;;5034694;28;20413;-75
2022/08/11 10:37:39;;;;;;;2.30;2.10;;;28.60;56.80;;;;;;5034412;28;20414;-75
2022/08/11 10:40:07;;;;;;;2.23;2.13;;;28.80;56.50;;;;;;5033950;28;20426;-74
2022/08/11 10:48:05;;;;;;;3.00;2.40;;;28.70;55.00;;;;;;5033549;28;20390;-76
2022/08/11 10:58:50;;;;;;;2.23;2.13;;;28.50;56.10;;;;;;5037026;28;20432;-74
2022/08/11 11:01:26;;;;;;;3.40;2.37;;;28.50;56.30;;;;;;5043022;28;20467;-74
2022/08/11 11:03:57;;;;;;;1.90;1.80;;;28.30;56.70;;;;;;5052627;28;20418;-74
2022/08/11 11:06:34;;;;;;;3.43;2.07;;;28.30;56.80;;;;;;5049522;28;20560;-74
2022/08/11 11:09:10;;;;;;;2.70;2.50;;;28.60;56.70;;;;;;5033107;28;20393;-73
2022/08/11 11:20:29;;;;;;;2.80;2.40;;;28.60;56.10;;;;;;5040112;28;20475;-71
2022/08/11 11:22:59;;;;;;;2.50;2.30;;;28.80;56.40;;;;;;5049736;28;20428;-71
2022/08/11 11:26:05;;;;;;;2.30;2.10;;;28.80;56.10;;;;;;5049195;28;20508;-70
2022/08/11 11:28:46;;;;;;;2.27;1.97;;;28.50;56.20;;;;;;5049622;28;20432;-70
2022/08/11 11:31:33;;;;;;;4.60;1.83;;;28.60;56.40;;;;;;5049575;28;20412;-70
2022/08/11 11:34:17;;;;;;;1.97;1.80;;;28.50;56.70;;;;;;5049139;28;20440;-70
2022/08/11 11:36:49;;;;;;;1.97;1.87;;;28.70;56.00;;;;;;5049237;28;20416;-70
2022/08/11 11:39:22;;;;;;;2.50;2.30;;;28.70;56.10;;;;;;5049698;28;20400;-70
2022/08/11 11:41:54;;;;;;;3.37;2.40;;;28.80;56.00;;;;;;5049653;28;20586;-70
2022/08/11 11:44:21;;;;;;;2.10;2.00;;;28.70;56.10;;;;;;5049335;28;20425;-71
2022/08/11 11:46:48;;;;;;;2.87;2.10;;;28.50;56.50;;;;;;5048593;28;20408;-70
2022/08/11 11:49:17;;;;;;;2.30;2.10;;;28.40;56.30;;;;;;5049134;28;20413;-70
2022/08/11 11:51:45;;;;;;;2.87;2.67;;;28.60;54.80;;;;;;5049334;28;20488;-70
2022/08/11 11:54:14;;;;;;;3.40;2.37;;;28.60;56.30;;;;;;5049192;28;20551;-70
2022/08/11 11:56:41;;;;;;;3.33;1.83;;;28.70;55.60;;;;;;5049126;28;20742;-70
2022/08/11 12:01:55;;;;;;;2.17;2.07;;;28.50;55.20;;;;;;5049706;28;20562;-70
2022/08/11 12:04:21;;;;;;;5.00;2.20;;;28.60;55.50;;;;;;5049057;28;20426;-71
2022/08/11 12:06:47;;;;;;;2.67;2.30;;;28.70;55.30;;;;;;5055698;28;20518;-71
2022/08/11 12:09:17;;;;;;;2.10;1.90;;;28.90;55.60;;;;;;5069224;28;20759;-70
2022/08/11 12:14:28;;;;;;;1.80;1.70;;;29.00;54.20;;;;;;5064868;28;20484;-70
2022/08/11 12:16:55;;;;;;;2.60;2.17;;;29.00;53.80;;;;;;5049427;28;20532;-71
2022/08/11 12:19:24;;;;;;;2.27;2.07;;;29.00;53.80;;;;;;5050268;28;20405;-71
2022/08/11 12:27:21;;;;;;;2.03;1.83;;;29.30;53.40;;;;;;5049960;28;20463;-71
2022/08/11 12:29:50;;;;;;;1.93;1.83;;;29.00;53.90;;;;;;5049341;28;20405;-71
2022/08/11 12:32:18;;;;;;;5.23;2.40;;;28.90;53.90;;;;;;5049859;28;20413;-71
2022/08/11 12:34:44;;;;;;;1.77;1.67;;;29.00;54.30;;;;;;5049099;28;20836;-70
2022/08/11 12:37:11;;;;;;;2.20;2.00;;;29.00;54.00;;;;;;5048907;28;20437;-70
2022/08/11 12:45:28;;;;;;;3.03;1.63;;;28.90;54.70;;;;;;5048646;28;20957;-70
2022/08/11 12:54:05;;;;;;;2.77;2.30;;;29.10;53.00;;;;;;5048915;28;20472;-71
2022/08/11 13:05:06;;;;;;;3.40;2.43;;;29.00;54.00;;;;;;5052044;28;20924;-71
2022/08/11 13:07:33;;;;;;;2.10;2.00;;;28.90;53.50;;;;;;5051888;28;20508;-70
2022/08/11 13:10:03;;;;;;;1.77;1.67;;;29.10;53.40;;;;;;5033222;28;20738;-70
2022/08/11 13:12:49;;;;;;;2.40;2.30;;;29.20;53.10;;;;;;5042945;28;20415;-70
2022/08/11 13:15:23;;;;;;;3.80;2.23;;;29.20;53.40;;;;;;5051396;28;20531;-70
2022/08/11 13:17:51;;;;;;;3.13;1.60;;;29.40;53.20;;;;;;5052188;28;20540;-71
2022/08/11 13:20:21;;;;;;;2.10;1.60;;;29.50;51.60;;;;;;5051877;28;20788;-70
2022/08/11 13:22:50;;;;;;;2.03;1.50;;;29.40;51.50;;;;;;5052145;28;20417;-70
2022/08/11 13:25:22;;;;;;;2.00;1.90;;;29.10;51.70;;;;;;5051632;28;20397;-70
2022/08/11 13:27:49;;;;;;;1.93;1.73;;;29.10;51.40;;;;;;5051902;28;20449;-70
2022/08/11 13:33:02;;;;;;;1.70;1.60;;;29.10;51.90;;;;;;5051729;28;20474;-71
2022/08/11 13:35:30;;;;;;;1.93;1.83;;;29.40;51.70;;;;;;5051314;28;20734;-71
2022/08/11 13:37:57;;;;;;;1.37;1.27;;;29.10;51.10;;;;;;5051419;28;20428;-70
2022/08/11 13:40:24;;;;;;;1.87;1.77;;;29.20;51.80;;;;;;5051121;28;20445;-70
2022/08/11 13:42:51;;;;;;;1.70;1.60;;;29.40;50.90;;;;;;5051688;28;20417;-70
2022/08/11 13:45:18;;;;;;;2.17;1.93;;;29.30;51.50;;;;;;5051598;28;20424;-70
2022/08/11 13:47:45;;;;;;;1.70;1.60;;;29.40;51.10;;;;;;5052279;28;20533;-70
2022/08/11 13:50:13;;;;;;;1.87;1.50;;;29.50;50.90;;;;;;5051959;28;21115;-70
2022/08/11 13:52:40;;;;;;;1.90;1.80;;;29.50;50.70;;;;;;5034200;28;20453;-70
2022/08/11 13:55:20;;;;;;;1.93;1.77;;;29.50;50.00;;;;;;5051739;28;20496;-70
2022/08/11 13:57:51;;;;;;;2.30;1.77;;;29.30;50.20;;;;;;5052101;28;20923;-70
2022/08/11 14:00:17;;;;;;;1.50;1.40;;;29.30;50.10;;;;;;5052063;28;20401;-70
2022/08/11 14:02:44;;;;;;;2.33;1.60;;;29.30;50.00;;;;;;5051864;28;20971;-70
2022/08/11 14:05:18;;;;;;;2.70;1.70;;;29.40;50.40;;;;;;5051464;28;20190;-70
2022/08/11 14:07:51;;;;;;;2.00;1.80;;;29.50;49.90;;;;;;5052211;28;20929;-71
2022/08/11 14:10:24;;;;;;;2.73;1.73;;;29.40;49.10;;;;;;5051135;28;20430;-71
2022/08/11 14:15:48;;;;;;;2.60;1.60;;;29.30;49.20;;;;;;5047511;28;20412;-71
2022/08/11 14:18:25;;;;;;;2.80;1.70;;;29.20;49.10;;;;;;5051773;28;20496;-70
2022/08/11 14:23:49;;;;;;;1.97;1.87;;;28.90;48.60;;;;;;5032097;28;20430;-71
2022/08/11 14:26:25;;;;;;;2.50;1.77;;;28.90;48.40;;;;;;5031895;28;20522;-71
2022/08/11 14:29:01;;;;;;;3.83;1.40;;;29.20;48.20;;;;;;5051554;28;20397;-71
2022/08/11 14:31:30;;;;;;;1.90;1.50;;;29.20;48.50;;;;;;5051461;28;20457;-69
2022/08/11 14:34:00;;;;;;;1.80;1.70;;;29.30;47.50;;;;;;5051232;28;20804;-69
2022/08/11 14:36:29;;;;;;;1.93;1.60;;;29.20;47.40;;;;;;5050637;28;20456;-70
2022/08/11 14:38:55;;;;;;;1.40;1.30;;;29.40;47.70;;;;;;5051006;28;20441;-69
2022/08/11 14:47:05;;;;;;;1.23;1.13;;;29.10;47.10;;;;;;5031269;28;20412;-71
2022/08/11 14:49:37;;;;;;;2.40;1.23;;;29.30;47.00;;;;;;5045433;28;20886;-71
2022/08/11 14:52:10;;;;;;;2.73;1.40;;;29.10;46.70;;;;;;5051001;28;20421;-70
2022/08/11 14:57:22;;;;;;;2.10;1.93;;;29.20;46.40;;;;;;5050967;28;20503;-70
2022/08/11 14:59:49;;;;;;;2.00;1.33;;;29.10;46.50;;;;;;5051016;28;20570;-70
2022/08/11 15:05:03;;;;;;;1.40;1.30;;;29.20;46.30;;;;;;5050834;28;20416;-70
2022/08/11 15:07:31;;;;;;;1.70;1.30;;;29.20;46.20;;;;;;5062812;28;20409;-70
2022/08/11 15:09:58;;;;;;;1.60;1.50;;;29.30;46.40;;;;;;5071041;28;20537;-73
2022/08/11 15:12:24;;;;;;;1.33;1.23;;;29.30;46.20;;;;;;5056580;28;20408;-73
2022/08/11 15:17:37;;;;;;;1.13;1.03;;;29.20;46.10;;;;;;5050673;28;20413;-71
2022/08/11 15:25:41;;;;;;;1.43;1.30;;;29.00;45.30;;;;;;5050670;28;20773;-70
2022/08/11 15:45:48;;;;;;;2.90;1.10;;;29.10;44.80;;;;;;5050433;28;20400;-71
2022/08/11 15:48:36;;;;;;;3.60;1.53;;;28.90;44.80;;;;;;5050382;28;20400;-70
2022/08/11 15:51:11;;;;;;;1.23;1.10;;;28.80;45.30;;;;;;5032908;28;20883;-72
2022/08/11 15:53:48;;;;;;;1.00;0.90;;;28.90;44.80;;;;;;5050383;28;20906;-70
2022/08/11 15:56:16;;;;;;;1.10;1.00;;;28.80;44.80;;;;;;5050145;28;20404;-71
2022/08/11 16:04:23;;;;;;;1.27;1.10;;;28.80;44.70;;;;;;5050493;28;21117;-71
2022/08/11 16:06:51;;;;;;;1.60;1.03;;;28.90;44.50;;;;;;5049748;28;20855;-71
2022/08/11 16:09:22;;;;;;;2.67;1.20;;;28.90;44.20;;;;;;5050242;28;20930;-71
2022/08/11 16:11:48;;;;;;;1.70;1.60;;;28.80;44.50;;;;;;5050224;28;20774;-71
2022/08/11 16:17:02;;;;;;;1.20;1.10;;;28.80;44.70;;;;;;5050315;28;20750;-71
2022/08/11 16:19:35;;;;;;;3.83;1.30;;;28.70;44.50;;;;;;5049769;28;20429;-71
2022/08/11 16:22:06;;;;;;;1.73;1.63;;;28.70;44.60;;;;;;5050198;28;20799;-70
2022/08/11 16:24:33;;;;;;;2.40;0.93;;;28.70;44.50;;;;;;5050079;28;20435;-71
2022/08/11 16:27:01;;;;;;;1.97;1.77;;;28.70;44.40;;;;;;5050248;28;20459;-70
2022/08/11 16:29:30;;;;;;;2.60;1.30;;;28.70;44.70;;;;;;5050053;28;20429;-71
2022/08/11 16:40:24;;;;;;;1.70;1.20;;;28.50;44.10;;;;;;5033979;28;20507;-70
2022/08/11 16:48:27;;;;;;;2.50;1.50;;;28.40;44.20;;;;;;5053918;28;20414;-70
2022/08/11 16:50:53;;;;;;;5.70;3.53;;;28.50;44.30;;;;;;5053337;28;20423;-69
2022/08/11 16:53:19;;;;;;;3.03;2.77;;;28.50;44.10;;;;;;5053182;28;20436;-69
2022/08/11 16:55:47;;;;;;;2.70;1.80;;;28.50;44.20;;;;;;5053330;28;20416;-70
2022/08/11 17:01:00;;;;;;;2.40;1.30;;;28.40;45.00;;;;;;5053705;28;20512;-71
2022/08/11 17:14:50;;;;;;;2.53;2.10;;;28.20;44.60;;;;;;5074911;22;20490;-66
2022/08/11 17:17:22;;;;;;;1.70;1.60;;;28.10;44.60;;;;;;5053239;28;20494;-66
2022/08/11 17:19:51;;;;;;;1.40;1.30;;;28.00;44.30;;;;;;5053010;28;20473;-66
2022/08/11 17:25:05;;;;;;;1.20;1.10;;;27.90;44.20;;;;;;5053299;28;20489;-67
2022/08/11 17:27:33;;;;;;;1.87;1.70;;;27.80;44.30;;;;;;5053080;28;20511;-67
2022/08/11 17:30:01;;;;;;;1.50;1.40;;;27.80;44.60;;;;;;5052982;28;20408;-66
2022/08/11 17:35:31;;;;;;;4.30;2.03;;;27.80;44.60;;;;;;5052799;28;20410;-66
2022/08/11 17:37:59;;;;;;;6.27;1.13;;;27.70;44.60;;;;;;5052782;28;20773;-66
2022/08/11 17:40:25;;;;;;;1.30;1.00;;;27.70;44.80;;;;;;5052697;28;20409;-66
2022/08/11 17:48:29;;;;;;;1.80;1.23;;;27.50;45.00;;;;;;5052377;28;20449;-66
2022/08/11 17:50:59;;;;;;;1.63;1.17;;;27.40;44.90;;;;;;5052214;28;20402;-67
2022/08/11 18:01:45;;;;;;;1.30;1.20;;;27.20;45.90;;;;;;5052223;28;20503;-67
2022/08/11 18:04:13;;;;;;;1.27;1.10;;;27.20;46.10;;;;;;5052292;28;20424;-66
2022/08/11 18:06:40;;;;;;;1.80;1.70;;;27.10;46.10;;;;;;5052244;28;20735;-66
